createdAt,value
2019-05-02T00:01:04.511Z,11.11
2019-05-02T00:03:41.099Z,11.06
2019-05-02T00:06:09.955Z,11.08
2019-05-02T00:08:41.623Z,11.17
2019-05-02T00:11:14.621Z,11.15
2019-05-02T00:13:45.986Z,11.21
2019-05-02T00:16:17.764Z,11.30
2019-05-02T00:18:49.422Z,11.40
2019-05-02T00:21:20.979Z,11.42
2019-05-02T00:23:52.399Z,11.44
2019-05-02T00:26:24.818Z,11.42
2019-05-02T00:28:57.469Z,11.34
2019-05-02T00:31:29.150Z,11.43
2019-05-02T00:34:00.685Z,11.43
2019-05-02T00:36:32.207Z,11.41
2019-05-02T00:39:09.575Z,11.41
2019-05-02T00:41:40.510Z,11.30
2019-05-02T00:44:12.417Z,11.33
2019-05-02T00:46:44.080Z,11.23
2019-05-02T00:49:15.532Z,11.18
2019-05-02T00:51:46.932Z,11.17
2019-05-02T00:54:19.173Z,11.24
2019-05-02T00:56:51.745Z,11.19
2019-05-02T00:59:23.503Z,11.16
2019-05-02T01:02:05.306Z,11.08
2019-05-02T01:04:38.397Z,11.08
2019-05-02T01:07:10.401Z,11.07
2019-05-02T01:09:46.802Z,11.12
2019-05-02T01:12:26.162Z,11.09
2019-05-02T01:14:51.188Z,11.11
2019-05-02T01:17:26.033Z,11.19
2019-05-02T01:19:56.054Z,11.16
2019-05-02T01:22:27.903Z,11.25
2019-05-02T01:24:59.457Z,11.27
2019-05-02T01:27:45.301Z,11.34
2019-05-02T01:30:43.718Z,11.29
2019-05-02T01:33:41.772Z,11.27
2019-05-02T01:36:18.184Z,11.22
2019-05-02T01:38:50.460Z,11.20
2019-05-02T01:41:23.952Z,11.20
2019-05-02T01:44:00.082Z,11.34
2019-05-02T01:46:28.272Z,11.34
2019-05-02T01:48:59.833Z,11.45
2019-05-02T01:51:31.060Z,11.46
2019-05-02T01:54:04.944Z,11.51
2019-05-02T01:56:35.397Z,11.51
2019-05-02T01:59:07.089Z,11.61
2019-05-02T02:01:38.701Z,11.55
2019-05-02T02:04:09.831Z,11.56
2019-05-02T02:06:43.420Z,11.63
2019-05-02T02:09:14.259Z,11.66
2019-05-02T02:11:45.681Z,11.59
2019-05-02T02:14:18.760Z,11.63
2019-05-02T02:16:50.164Z,11.63
2019-05-02T02:19:27.149Z,11.59
2019-05-02T02:22:11.286Z,11.67
2019-05-02T02:24:46.251Z,11.68
2019-05-02T02:27:19.978Z,11.59
2019-05-02T02:29:50.894Z,11.61
2019-05-02T02:32:27.102Z,11.68
2019-05-02T02:34:55.321Z,11.63
2019-05-02T02:37:26.665Z,11.63
2019-05-02T02:39:58.300Z,11.49
2019-05-02T02:42:31.535Z,11.55
2019-05-02T02:45:26.001Z,11.56
2019-05-02T02:47:59.825Z,11.56
2019-05-02T02:50:36.775Z,11.56
2019-05-02T02:53:04.388Z,11.58
2019-05-02T02:55:35.766Z,11.60
2019-05-02T02:58:07.797Z,11.61
2019-05-02T03:00:41.552Z,11.61
2019-05-02T03:03:12.700Z,11.72
2019-05-02T03:05:44.238Z,11.59
2019-05-02T03:08:15.833Z,11.49
2019-05-02T03:10:47.644Z,11.41
2019-05-02T03:13:51.449Z,11.53
2019-05-02T03:16:14.871Z,11.50
2019-05-02T03:18:46.333Z,11.50
2019-05-02T03:21:20.922Z,11.52
2019-05-02T03:24:01.431Z,11.59
2019-05-02T03:26:24.332Z,11.50
2019-05-02T03:28:58.375Z,11.59
2019-05-02T03:31:31.018Z,11.55
2019-05-02T03:34:02.430Z,11.55
2019-05-02T03:36:36.609Z,11.49
2019-05-02T03:39:14.867Z,11.58
2019-05-02T03:41:41.387Z,11.64
2019-05-02T03:44:24.639Z,11.65
2019-05-02T03:46:46.269Z,11.64
2019-05-02T03:49:17.945Z,11.69
2019-05-02T03:51:49.546Z,11.65
2019-05-02T03:54:20.642Z,11.80
2019-05-02T03:56:53.422Z,11.86
2019-05-02T03:59:37.053Z,11.89
2019-05-02T04:01:59.168Z,11.76
2019-05-02T04:04:31.807Z,11.76
2019-05-02T04:07:04.380Z,11.80
2019-05-02T04:09:39.699Z,11.91
2019-05-02T04:12:17.808Z,11.99
2019-05-02T04:14:44.371Z,12.01
2019-05-02T04:17:15.771Z,12.08
2019-05-02T04:19:48.009Z,12.22
2019-05-02T04:22:19.298Z,12.29
2019-05-02T04:24:54.667Z,12.39
2019-05-02T04:27:27.973Z,12.33
2019-05-02T04:30:09.649Z,12.33
2019-05-02T04:32:35.014Z,12.36
2019-05-02T04:35:07.001Z,12.33
2019-05-02T04:37:41.124Z,12.34
2019-05-02T04:40:12.528Z,12.43
2019-05-02T04:42:44.083Z,12.51
2019-05-02T04:45:26.518Z,12.72
2019-05-02T04:47:54.574Z,12.73
2019-05-02T04:50:25.152Z,12.58
2019-05-02T04:52:54.771Z,12.57
2019-05-02T04:55:32.227Z,12.57
2019-05-02T04:58:01.706Z,12.44
2019-05-02T05:00:32.340Z,12.51
2019-05-02T05:03:07.140Z,12.68
2019-05-02T05:05:40.032Z,12.78
2019-05-02T05:08:09.991Z,12.74
2019-05-02T05:10:44.943Z,12.93
2019-05-02T05:13:19.400Z,12.83
2019-05-02T05:15:51.274Z,12.93
2019-05-02T05:18:20.389Z,13.05
2019-05-02T05:20:52.982Z,13.14
2019-05-02T05:23:59.264Z,12.92
2019-05-02T05:26:27.703Z,12.92
2019-05-02T05:28:58.758Z,12.90
2019-05-02T05:31:30.211Z,13.25
2019-05-02T05:34:01.547Z,13.55
2019-05-02T05:36:34.226Z,14.05
2019-05-02T05:39:11.530Z,14.59
2019-05-02T05:41:42.680Z,14.99
2019-05-02T05:44:13.651Z,15.05
2019-05-02T05:46:46.901Z,15.34
2019-05-02T05:49:21.648Z,16.78
2019-05-02T05:51:54.428Z,17.54
2019-05-02T05:54:24.096Z,17.54
2019-05-02T05:56:57.261Z,17.78
2019-05-02T05:59:32.044Z,17.86
2019-05-02T06:02:05.590Z,17.54
2019-05-02T06:04:34.454Z,17.76
2019-05-02T06:07:07.226Z,17.62
2019-05-02T06:09:38.684Z,18.27
2019-05-02T06:12:09.744Z,18.10
2019-05-02T06:14:41.109Z,18.99
2019-05-02T06:17:12.392Z,18.99
2019-05-02T06:19:43.413Z,18.55
2019-05-02T06:22:16.470Z,18.65
2019-05-02T06:24:50.799Z,18.91
2019-05-02T06:27:20.874Z,19.07
2019-05-02T06:29:56.185Z,19.21
2019-05-02T06:32:26.198Z,19.23
2019-05-02T06:34:57.603Z,19.37
2019-05-02T06:37:28.720Z,19.51
2019-05-02T06:40:03.164Z,19.76
2019-05-02T06:42:34.507Z,20.03
2019-05-02T06:45:06.626Z,19.81
2019-05-02T06:47:41.516Z,19.76
2019-05-02T06:50:11.432Z,20.61
2019-05-02T06:52:42.757Z,20.71
2019-05-02T06:55:14.259Z,21.09
2019-05-02T06:57:45.531Z,20.93
2019-05-02T07:00:17.225Z,21.04
2019-05-02T07:02:48.524Z,20.98
2019-05-02T07:05:19.945Z,21.26
2019-05-02T07:07:51.568Z,21.58
2019-05-02T07:10:25.517Z,21.19
2019-05-02T07:13:09.881Z,21.57
2019-05-02T07:15:57.011Z,22.16
2019-05-02T07:18:30.414Z,21.19
2019-05-02T07:21:02.018Z,21.11
2019-05-02T07:23:33.319Z,21.25
2019-05-02T07:26:04.625Z,21.10
2019-05-02T07:28:39.987Z,21.47
2019-05-02T07:31:11.997Z,21.51
2019-05-02T07:33:41.335Z,21.56
2019-05-02T07:36:12.701Z,21.46
2019-05-02T07:38:43.747Z,21.26
2019-05-02T07:41:14.970Z,21.15
2019-05-02T07:43:45.932Z,21.18
2019-05-02T07:46:20.928Z,21.09
2019-05-02T07:48:54.699Z,21.28
2019-05-02T07:51:23.457Z,21.34
2019-05-02T07:53:55.661Z,21.74
2019-05-02T07:56:27.107Z,21.53
2019-05-02T07:58:58.332Z,21.38
2019-05-02T08:01:29.548Z,21.45
2019-05-02T08:04:04.393Z,21.57
2019-05-02T08:06:35.469Z,21.42
2019-05-02T08:09:09.406Z,21.41
2019-05-02T08:11:41.064Z,21.69
2019-05-02T08:14:12.353Z,21.69
2019-05-02T08:16:43.608Z,22.01
2019-05-02T08:19:14.927Z,21.89
2019-05-02T08:21:46.171Z,21.87
2019-05-02T08:24:17.267Z,21.61
2019-05-02T08:27:09.131Z,21.96
2019-05-02T08:29:40.315Z,21.87
2019-05-02T08:32:12.910Z,21.69
2019-05-02T08:34:46.112Z,21.88
2019-05-02T08:37:17.435Z,21.77
2019-05-02T08:39:48.728Z,21.82
2019-05-02T08:42:19.998Z,22.26
2019-05-02T08:44:55.920Z,21.86
2019-05-02T08:47:28.525Z,22.16
2019-05-02T08:49:57.861Z,22.30
2019-05-02T08:52:31.030Z,22.22
2019-05-02T08:55:04.509Z,22.40
2019-05-02T08:57:36.321Z,22.32
2019-05-02T09:00:08.645Z,22.27
2019-05-02T09:02:41.709Z,22.29
2019-05-02T09:05:14.348Z,22.12
2019-05-02T09:07:45.563Z,21.75
2019-05-02T09:10:16.864Z,21.70
2019-05-02T09:12:48.156Z,21.81
2019-05-02T09:15:19.750Z,22.19
2019-05-02T09:17:56.319Z,22.05
2019-05-02T09:20:25.289Z,22.04
2019-05-02T09:22:56.285Z,21.50
2019-05-02T09:25:27.590Z,21.78
2019-05-02T09:27:59.142Z,22.03
2019-05-02T09:30:32.566Z,21.76
2019-05-02T09:33:06.533Z,22.35
2019-05-02T09:35:36.569Z,22.47
2019-05-02T09:38:07.558Z,22.32
2019-05-02T09:40:38.639Z,22.49
2019-05-02T09:43:12.017Z,22.82
2019-05-02T09:45:43.939Z,22.93
2019-05-02T09:48:17.317Z,22.86
2019-05-02T09:50:48.287Z,22.65
2019-05-02T09:53:24.045Z,22.89
2019-05-02T09:55:57.739Z,22.75
2019-05-02T09:58:27.798Z,22.46
2019-05-02T10:01:07.239Z,22.67
2019-05-02T10:03:38.536Z,22.75
2019-05-02T10:06:16.451Z,22.39
2019-05-02T10:08:45.479Z,22.30
2019-05-02T10:11:16.898Z,22.52
2019-05-02T10:13:47.924Z,22.49
2019-05-02T10:16:23.610Z,22.92
2019-05-02T10:18:52.401Z,22.56
2019-05-02T10:21:23.681Z,22.63
2019-05-02T10:23:59.305Z,22.68
2019-05-02T10:26:28.094Z,22.41
2019-05-02T10:28:59.019Z,22.75
2019-05-02T10:31:33.370Z,22.47
2019-05-02T10:34:03.092Z,22.78
2019-05-02T10:36:34.654Z,22.53
2019-05-02T10:39:07.940Z,23.02
2019-05-02T10:41:40.986Z,22.98
2019-05-02T10:44:12.840Z,22.74
2019-05-02T10:47:03.034Z,22.18
2019-05-02T10:49:43.701Z,22.05
2019-05-02T10:52:14.873Z,22.15
2019-05-02T10:54:46.095Z,22.04
2019-05-02T10:57:17.357Z,21.83
2019-05-02T10:59:48.304Z,21.36
2019-05-02T11:02:53.474Z,20.99
2019-05-02T11:05:26.594Z,21.31
2019-05-02T11:08:04.610Z,21.40
2019-05-02T11:10:32.309Z,20.84
2019-05-02T11:13:32.656Z,20.61
2019-05-02T11:16:26.273Z,20.76
2019-05-02T11:19:03.395Z,21.04
2019-05-02T11:24:04.149Z,21.02
2019-05-02T11:26:35.494Z,20.81
2019-05-02T11:29:07.094Z,20.84
2019-05-02T11:31:38.354Z,21.01
2019-05-02T11:34:09.702Z,21.14
2019-05-02T11:36:41.983Z,20.76
2019-05-02T11:39:20.584Z,20.77
2019-05-02T11:41:46.955Z,21.03
2019-05-02T11:44:19.083Z,21.45
2019-05-02T11:46:52.065Z,21.91
2019-05-02T11:49:23.527Z,22.13
2019-05-02T11:51:57.100Z,22.05
2019-05-02T11:54:27.967Z,21.70
2019-05-02T11:56:59.156Z,21.32
2019-05-02T12:02:19.093Z,21.07
2019-05-02T12:04:53.888Z,20.81
2019-05-02T12:07:23.280Z,21.14
2019-05-02T12:09:57.056Z,21.24
2019-05-02T12:12:27.318Z,21.32
2019-05-02T12:14:59.954Z,21.38
2019-05-02T12:17:32.625Z,21.38
2019-05-02T12:20:04.216Z,21.06
2019-05-02T12:22:35.595Z,21.27
2019-05-02T12:25:07.243Z,21.34
2019-05-02T12:27:38.455Z,21.37
2019-05-02T12:30:11.780Z,21.18
2019-05-02T12:32:43.121Z,21.18
2019-05-02T12:35:14.457Z,21.00
2019-05-02T12:37:47.020Z,21.00
2019-05-02T12:40:19.087Z,20.89
2019-05-02T12:42:52.474Z,20.84
2019-05-02T12:45:23.380Z,20.60
2019-05-02T12:47:54.504Z,20.44
2019-05-02T12:50:26.039Z,20.49
2019-05-02T12:52:57.380Z,20.63
2019-05-02T12:55:28.721Z,20.69
2019-05-02T12:58:00.294Z,20.66
2019-05-02T13:00:32.049Z,20.79
2019-05-02T13:03:11.697Z,20.64
2019-05-02T13:05:42.847Z,20.47
2019-05-02T13:08:14.175Z,20.46
2019-05-02T13:11:06.647Z,20.62
2019-05-02T13:13:37.409Z,20.39
2019-05-02T13:16:08.467Z,20.31
2019-05-02T13:18:39.778Z,20.29
2019-05-02T13:21:16.943Z,20.38
2019-05-02T13:23:51.698Z,20.62
2019-05-02T13:26:27.142Z,20.50
2019-05-02T13:28:56.229Z,20.36
2019-05-02T13:31:36.642Z,20.32
2019-05-02T13:34:22.109Z,20.14
2019-05-02T13:36:53.821Z,20.31
2019-05-02T13:39:32.662Z,20.27
2019-05-02T13:42:04.037Z,20.23
2019-05-02T13:44:38.614Z,20.26
2019-05-02T13:47:12.275Z,20.25
2019-05-02T13:49:54.051Z,20.32
2019-05-02T13:52:17.602Z,20.36
2019-05-02T13:54:49.089Z,20.39
2019-05-02T13:57:21.887Z,20.14
2019-05-02T13:59:54.024Z,20.11
2019-05-02T14:02:42.489Z,19.94
2019-05-02T14:05:15.597Z,19.67
2019-05-02T14:07:55.679Z,19.74
2019-05-02T14:10:39.528Z,19.56
2019-05-02T14:13:06.171Z,19.55
2019-05-02T14:15:39.594Z,19.66
2019-05-02T14:18:12.386Z,19.55
2019-05-02T14:20:44.039Z,19.77
2019-05-02T14:23:15.422Z,20.06
2019-05-02T14:25:48.317Z,20.16
2019-05-02T14:28:19.473Z,20.24
2019-05-02T14:30:52.552Z,20.30
2019-05-02T14:33:25.357Z,20.28
2019-05-02T14:35:56.819Z,20.27
2019-05-02T14:38:28.042Z,20.38
2019-05-02T14:41:13.657Z,20.41
2019-05-02T14:43:55.994Z,20.50
2019-05-02T14:46:34.260Z,20.35
2019-05-02T14:49:02.704Z,20.35
2019-05-02T14:51:36.612Z,20.34
2019-05-02T14:54:08.574Z,20.42
2019-05-02T14:57:03.476Z,20.22
2019-05-02T14:59:35.010Z,20.33
2019-05-02T15:02:09.686Z,20.20
2019-05-02T15:04:44.695Z,20.09
2019-05-02T15:07:17.618Z,20.08
2019-05-02T15:09:47.079Z,19.99
2019-05-02T15:12:19.075Z,19.86
2019-05-02T15:14:57.035Z,19.67
2019-05-02T15:17:23.105Z,19.59
2019-05-02T15:19:54.337Z,19.53
2019-05-02T15:22:27.705Z,19.43
2019-05-02T15:24:58.475Z,19.58
2019-05-02T15:27:40.225Z,19.53
2019-05-02T15:30:06.731Z,19.58
2019-05-02T15:33:03.164Z,19.61
2019-05-02T15:36:03.097Z,19.54
2019-05-02T15:38:32.343Z,19.59
2019-05-02T15:41:06.968Z,19.54
2019-05-02T15:43:39.394Z,19.48
2019-05-02T15:46:09.429Z,19.42
2019-05-02T15:48:42.181Z,19.13
2019-05-02T15:51:13.545Z,19.20
2019-05-02T15:54:05.969Z,19.17
2019-05-02T15:56:32.395Z,19.13
2019-05-02T15:59:06.283Z,19.26
2019-05-02T16:01:56.267Z,19.32
2019-05-02T16:04:32.099Z,19.24
2019-05-02T16:07:06.954Z,19.26
2019-05-02T16:09:36.377Z,19.16
2019-05-02T16:12:07.971Z,19.18
2019-05-02T16:14:39.347Z,19.21
2019-05-02T16:17:12.561Z,19.18
2019-05-02T16:19:48.070Z,19.14
2019-05-02T16:22:22.447Z,19.11
2019-05-02T16:24:53.763Z,19.08
2019-05-02T16:27:48.080Z,18.94
2019-05-02T16:30:22.537Z,19.00
2019-05-02T16:32:56.561Z,18.92
2019-05-02T16:35:28.818Z,18.81
2019-05-02T16:38:00.162Z,18.79
2019-05-02T16:40:32.802Z,18.80
2019-05-02T16:43:05.107Z,18.77
2019-05-02T16:45:36.329Z,18.66
2019-05-02T16:48:07.846Z,18.62
2019-05-02T16:50:39.364Z,18.62
2019-05-02T16:53:11.679Z,18.44
2019-05-02T16:55:43.605Z,18.36
2019-05-02T16:58:14.860Z,18.20
2019-05-02T17:00:46.169Z,18.09
2019-05-02T17:03:24.730Z,18.05
2019-05-02T17:05:54.388Z,17.83
2019-05-02T17:08:38.245Z,17.74
2019-05-02T17:11:27.867Z,17.52
2019-05-02T17:13:59.173Z,17.47
2019-05-02T17:16:31.592Z,17.35
2019-05-02T17:19:02.833Z,17.28
2019-05-02T17:21:52.178Z,17.21
2019-05-02T17:24:07.126Z,17.26
2019-05-02T17:26:39.633Z,17.22
2019-05-02T17:29:11.920Z,17.11
2019-05-02T17:31:42.923Z,17.17
2019-05-02T17:34:14.940Z,17.08
2019-05-02T17:36:46.289Z,16.80
2019-05-02T17:39:18.884Z,16.75
2019-05-02T17:41:52.964Z,16.73
2019-05-02T17:44:24.646Z,16.75
2019-05-02T17:46:58.546Z,16.68
2019-05-02T17:49:31.847Z,16.73
2019-05-02T17:52:26.974Z,16.73
2019-05-02T17:55:01.256Z,16.62
2019-05-02T17:57:33.345Z,16.65
2019-05-02T18:00:07.531Z,16.65
2019-05-02T18:02:37.261Z,16.48
2019-05-02T18:05:08.524Z,16.34
2019-05-02T18:07:39.732Z,16.34
2019-05-02T18:10:14.311Z,16.16
2019-05-02T18:12:47.320Z,16.16
2019-05-02T18:15:17.357Z,16.27
2019-05-02T18:17:48.634Z,16.32
2019-05-02T18:20:21.836Z,16.29
2019-05-02T18:22:52.855Z,16.40
2019-05-02T18:25:25.408Z,16.48
2019-05-02T18:27:56.919Z,16.54
2019-05-02T18:30:28.173Z,16.59
2019-05-02T18:33:03.555Z,16.67
2019-05-02T18:35:32.599Z,16.65
2019-05-02T18:38:04.048Z,16.62
2019-05-02T18:40:35.370Z,16.65
2019-05-02T18:43:06.807Z,16.70
2019-05-02T18:45:38.095Z,16.64
2019-05-02T18:48:09.413Z,16.66
2019-05-02T18:50:46.311Z,16.60
2019-05-02T18:53:18.561Z,16.62
2019-05-02T18:55:48.780Z,16.62
2019-05-02T18:58:20.088Z,16.50
2019-05-02T19:00:51.993Z,16.50
2019-05-02T19:03:23.611Z,16.49
2019-05-02T19:05:57.280Z,16.37
2019-05-02T19:08:32.189Z,16.36
2019-05-02T19:11:09.001Z,16.31
2019-05-02T19:13:37.530Z,16.14
2019-05-02T19:16:07.991Z,15.90
2019-05-02T19:18:39.108Z,15.93
2019-05-02T19:21:12.583Z,15.93
2019-05-02T19:23:43.731Z,15.89
2019-05-02T19:26:15.405Z,15.93
2019-05-02T19:28:52.728Z,15.92
2019-05-02T19:31:26.716Z,15.86
2019-05-02T19:33:58.048Z,15.86
2019-05-02T19:36:29.217Z,15.69
2019-05-02T19:39:07.841Z,15.51
2019-05-02T19:41:39.006Z,15.51
2019-05-02T19:44:07.903Z,15.48
2019-05-02T19:46:39.155Z,15.51
2019-05-02T19:49:12.386Z,15.55
2019-05-02T19:51:43.313Z,15.32
2019-05-02T19:54:14.431Z,15.32
2019-05-02T19:56:47.481Z,15.22
2019-05-02T19:59:24.494Z,15.20
2019-05-02T20:01:52.295Z,15.15
2019-05-02T20:04:23.369Z,15.15
2019-05-02T20:06:54.614Z,15.09
2019-05-02T20:09:28.590Z,15.07
2019-05-02T20:11:59.521Z,14.95
2019-05-02T20:14:32.085Z,15.05
2019-05-02T20:17:03.640Z,15.05
2019-05-02T20:19:37.256Z,14.97
2019-05-02T20:22:17.184Z,14.96
2019-05-02T20:25:00.309Z,14.87
2019-05-02T20:27:28.960Z,14.92
2019-05-02T20:29:59.979Z,14.91
2019-05-02T20:32:32.259Z,14.46
2019-05-02T20:35:03.503Z,14.37
2019-05-02T20:37:34.784Z,14.40
2019-05-02T20:40:05.978Z,14.27
2019-05-02T20:42:37.048Z,14.17
2019-05-02T20:45:08.731Z,14.20
2019-05-02T20:47:40.084Z,14.11
2019-05-02T20:50:12.124Z,14.01
2019-05-02T20:52:44.325Z,14.06
2019-05-02T20:55:15.582Z,14.01
2019-05-02T20:57:46.624Z,14.01
2019-05-02T21:00:23.690Z,14.01
2019-05-02T21:02:54.914Z,14.08
2019-05-02T21:05:33.038Z,14.09
2019-05-02T21:08:29.435Z,14.12
2019-05-02T21:11:01.809Z,14.11
2019-05-02T21:13:33.091Z,14.16
2019-05-02T21:16:04.669Z,13.86
2019-05-02T21:18:36.905Z,13.95
2019-05-02T21:21:08.267Z,13.89
2019-05-02T21:23:44.761Z,13.96
2019-05-02T21:26:12.199Z,13.92
2019-05-02T21:28:46.098Z,13.98
2019-05-02T21:31:16.659Z,13.98
2019-05-02T21:33:47.801Z,13.85
2019-05-02T21:36:18.887Z,13.82
2019-05-02T21:38:51.935Z,13.83
2019-05-02T21:41:23.205Z,13.74
2019-05-02T21:43:54.548Z,13.74
2019-05-02T21:46:25.537Z,13.62
2019-05-02T21:48:56.826Z,13.64
2019-05-02T21:51:42.490Z,13.46
2019-05-02T21:54:52.077Z,13.05
2019-05-02T21:57:23.477Z,12.51
2019-05-02T21:59:54.708Z,12.48
2019-05-02T22:02:25.894Z,12.36
2019-05-02T22:04:57.075Z,12.35
2019-05-02T22:07:28.208Z,12.16
2019-05-02T22:09:59.259Z,12.12
2019-05-02T22:12:31.782Z,12.04
2019-05-02T22:15:03.265Z,11.99
2019-05-02T22:17:35.372Z,12.03
2019-05-02T22:20:07.012Z,11.71
2019-05-02T22:22:38.558Z,11.70
2019-05-02T22:25:11.607Z,11.54
2019-05-02T22:27:43.173Z,11.49
2019-05-02T22:30:15.086Z,11.37
2019-05-02T22:32:44.488Z,11.36
2019-05-02T22:35:16.212Z,11.51
2019-05-02T22:37:49.317Z,11.55
2019-05-02T22:40:21.788Z,11.59
2019-05-02T22:42:53.590Z,11.51
2019-05-02T22:45:25.127Z,11.59
2019-05-02T22:47:56.551Z,11.68
2019-05-02T22:50:28.116Z,11.63
2019-05-02T22:52:59.526Z,11.64
2019-05-02T22:55:32.022Z,11.66
2019-05-02T22:58:03.536Z,11.67
2019-05-02T23:00:34.872Z,11.66
2019-05-02T23:03:06.301Z,11.73
2019-05-02T23:05:37.576Z,11.66
2019-05-02T23:08:09.194Z,11.58
2019-05-02T23:10:41.658Z,11.56
2019-05-02T23:13:13.144Z,11.60
2019-05-02T23:15:44.417Z,11.63
2019-05-02T23:18:15.783Z,11.27
2019-05-02T23:20:47.189Z,11.16
2019-05-02T23:23:18.554Z,11.05
2019-05-02T23:26:09.019Z,10.97
2019-05-02T23:28:42.514Z,10.96
2019-05-02T23:31:14.221Z,10.89
2019-05-02T23:34:02.052Z,10.86
2019-05-02T23:36:33.905Z,10.81
2019-05-02T23:39:08.613Z,10.88
2019-05-02T23:41:42.029Z,10.95
2019-05-02T23:44:13.755Z,11.00
2019-05-02T23:46:45.457Z,10.99
2019-05-02T23:49:16.952Z,10.89
2019-05-02T23:51:48.593Z,10.95
2019-05-02T23:54:21.896Z,10.97
2019-05-02T23:56:53.159Z,11.00
2019-05-02T23:59:24.424Z,10.96
